Cringleford, United Kingdom
Current Conditions -  °F | °C
As of 12:20 PM on Thursday 18 Dec 2014 (Local Time) from EGSH Reporting Station
Broken Clouds Broken Clouds  
Wind Chill: 57°   Ceiling: 1600
Heat Index: 57°   Visibility: 6mi
Dew Point: 52°   Wind: 18mph
Humidity: 82%   Direction: 230°SW
Pressure: 29.68"   Gusts: NA
Location:  52.6°N, 1.24°E
Report Text: EGSH 181220Z 23016KT 190V270 9999 BKN016 14/11 Q1005 NOSIG
Loading
Personal Weather Stations






























Interactive Weather Map New forecast layout! Learn more

10-Day Weather Forecast

Advertisements
Track Severe Weather on mobile